Time;durP1;ratioP1;P1;durP2;ratioP2;P2;SDS_P1;SDS_P2;PMS_P1;PMS_P2;Temp;Humidity;BMP_temperature;BMP_pressure;BME280_temperature;BME280_humidity;BME280_pressure;Samples;Min_cycle;Max_cycle;Signal;HPM_P1;HPM_P2
2023/03/21 00:00:57;;;;;;;4.63;2.33;;;12.70;65.20;;;;;;915963;153;27429;-77
2023/03/21 00:03:23;;;;;;;3.97;2.30;;;12.70;65.30;;;;;;929280;150;27370;-77
2023/03/21 00:05:52;;;;;;;3.40;2.30;;;12.70;65.30;;;;;;914564;152;27370;-77
2023/03/21 00:08:16;;;;;;;3.87;2.00;;;12.70;65.40;;;;;;914150;153;27441;-77
2023/03/21 00:10:43;;;;;;;2.90;1.93;;;12.70;65.40;;;;;;927811;150;28107;-77
2023/03/21 00:13:11;;;;;;;4.37;2.97;;;12.70;65.40;;;;;;929860;150;27306;-77
2023/03/21 00:15:49;;;;;;;4.30;2.13;;;12.70;65.50;;;;;;910861;153;27491;-77
2023/03/21 00:18:03;;;;;;;2.77;2.00;;;12.60;65.60;;;;;;911548;153;27699;-77
2023/03/21 00:20:29;;;;;;;2.43;2.10;;;12.60;65.40;;;;;;929130;150;27495;-77
2023/03/21 00:22:56;;;;;;;3.90;2.40;;;12.60;65.50;;;;;;922682;153;27343;-77
2023/03/21 00:25:22;;;;;;;3.60;2.30;;;12.60;65.60;;;;;;913127;153;27540;-77
2023/03/21 00:27:49;;;;;;;3.10;2.30;;;12.60;65.60;;;;;;911740;153;27382;-77
2023/03/21 00:30:16;;;;;;;3.63;2.10;;;12.60;65.70;;;;;;909687;153;27436;-77
2023/03/21 00:32:42;;;;;;;3.23;2.27;;;12.50;65.70;;;;;;924938;151;27393;-77
2023/03/21 00:35:09;;;;;;;4.20;2.33;;;12.50;65.70;;;;;;927140;151;27468;-77
2023/03/21 00:37:35;;;;;;;3.07;2.37;;;12.50;65.80;;;;;;925082;151;27372;-77
2023/03/21 00:40:07;;;;;;;2.87;2.20;;;12.50;65.00;;;;;;926190;151;27471;-77
2023/03/21 00:42:28;;;;;;;3.77;2.70;;;12.50;65.90;;;;;;924725;151;27411;-77
2023/03/21 00:44:55;;;;;;;2.70;2.50;;;12.50;66.10;;;;;;926605;150;27308;-77
2023/03/21 00:47:22;;;;;;;3.97;2.30;;;12.40;66.00;;;;;;926948;151;27558;-77
2023/03/21 00:49:48;;;;;;;3.30;2.37;;;12.40;66.10;;;;;;925003;151;27350;-78
2023/03/21 00:52:15;;;;;;;3.40;2.50;;;12.40;66.20;;;;;;918487;153;27395;-78
2023/03/21 00:54:41;;;;;;;4.17;2.70;;;12.40;66.20;;;;;;911205;153;27787;-77
2023/03/21 00:57:08;;;;;;;2.90;2.60;;;12.40;66.30;;;;;;910172;153;27391;-77
2023/03/21 00:59:35;;;;;;;4.87;2.80;;;12.40;66.40;;;;;;929996;150;27363;-77
2023/03/21 01:02:05;;;;;;;4.10;2.53;;;12.40;66.40;;;;;;927421;151;27403;-77
2023/03/21 01:04:28;;;;;;;2.93;2.60;;;12.40;66.40;;;;;;909513;153;27845;-77
2023/03/21 01:06:54;;;;;;;3.23;2.60;;;12.40;66.50;;;;;;909290;153;27440;-77
2023/03/21 01:09:21;;;;;;;4.83;2.47;;;12.40;66.50;;;;;;927586;151;28079;-77
2023/03/21 01:11:48;;;;;;;2.80;2.50;;;12.40;66.60;;;;;;908960;153;27406;-77
2023/03/21 01:14:14;;;;;;;2.83;2.47;;;12.40;66.60;;;;;;918373;153;27398;-77
2023/03/21 01:16:41;;;;;;;3.27;2.70;;;12.40;66.60;;;;;;911447;153;27386;-76
2023/03/21 01:19:07;;;;;;;3.23;2.43;;;12.40;66.70;;;;;;909199;153;27421;-77
2023/03/21 01:21:35;;;;;;;3.13;2.80;;;12.40;66.70;;;;;;909900;153;27386;-77
2023/03/21 01:24:00;;;;;;;2.87;2.53;;;12.40;66.70;;;;;;926872;150;27418;-77
2023/03/21 01:26:27;;;;;;;4.33;2.20;;;12.40;66.70;;;;;;908081;154;27602;-77
2023/03/21 01:28:54;;;;;;;3.83;2.80;;;12.40;66.80;;;;;;925479;150;27320;-77
2023/03/21 01:31:20;;;;;;;4.40;2.83;;;12.30;66.70;;;;;;926956;151;27386;-77
2023/03/21 01:33:47;;;;;;;5.10;2.63;;;12.40;66.70;;;;;;926448;150;27398;-77
2023/03/21 01:36:16;;;;;;;4.77;2.70;;;12.40;66.80;;;;;;911524;153;27403;-77
2023/03/21 01:38:43;;;;;;;5.40;2.60;;;12.30;66.70;;;;;;910616;153;27466;-77
2023/03/21 01:41:16;;;;;;;2.90;2.50;;;12.30;66.80;;;;;;911453;153;27361;-77
2023/03/21 01:43:42;;;;;;;5.30;2.53;;;12.30;66.90;;;;;;911069;153;27965;-77
2023/03/21 01:46:30;;;;;;;3.87;2.73;;;12.30;67.00;;;;;;913559;153;27391;-77
2023/03/21 01:49:08;;;;;;;4.07;2.67;;;12.30;66.90;;;;;;911969;153;27416;-78
2023/03/21 01:51:35;;;;;;;3.70;2.63;;;12.20;66.90;;;;;;922589;151;27904;-78
2023/03/21 01:54:01;;;;;;;2.57;2.37;;;12.20;67.70;;;;;;924980;151;27380;-77
2023/03/21 01:56:28;;;;;;;2.87;2.33;;;12.20;67.00;;;;;;923335;151;27396;-77
2023/03/21 01:58:55;;;;;;;3.63;2.50;;;12.20;67.10;;;;;;922703;151;27973;-77
2023/03/21 02:01:21;;;;;;;4.57;2.63;;;12.10;67.20;;;;;;922214;151;27444;-77
2023/03/21 02:03:50;;;;;;;4.03;2.70;;;12.10;67.30;;;;;;923964;153;27376;-77
2023/03/21 02:06:29;;;;;;;4.07;2.50;;;12.10;67.50;;;;;;922391;151;28047;-77
2023/03/21 02:08:52;;;;;;;5.27;2.97;;;12.10;67.50;;;;;;923339;151;27386;-77
2023/03/21 02:11:20;;;;;;;2.93;2.30;;;12.10;67.50;;;;;;910000;153;27411;-77
2023/03/21 02:13:45;;;;;;;2.80;2.50;;;12.10;67.60;;;;;;918783;153;27399;-78
2023/03/21 02:16:17;;;;;;;3.13;2.63;;;12.10;67.60;;;;;;908186;153;28165;-77
2023/03/21 02:18:59;;;;;;;4.60;2.57;;;12.10;67.80;;;;;;914992;153;27464;-77
2023/03/21 02:21:31;;;;;;;3.67;2.23;;;12.10;67.70;;;;;;909132;153;27356;-78
2023/03/21 02:24:03;;;;;;;3.53;2.50;;;12.10;67.60;;;;;;908447;154;27811;-77
2023/03/21 02:26:52;;;;;;;4.73;2.60;;;12.10;67.60;;;;;;925917;151;27394;-77
2023/03/21 02:29:36;;;;;;;2.33;2.10;;;12.10;67.70;;;;;;908810;153;27478;-77
2023/03/21 02:32:03;;;;;;;3.20;2.33;;;12.10;67.70;;;;;;910248;153;27376;-77
2023/03/21 02:34:38;;;;;;;6.10;2.50;;;12.10;67.80;;;;;;927288;151;27393;-77
2023/03/21 02:37:11;;;;;;;4.23;3.00;;;12.10;67.80;;;;;;924962;151;27493;-78
2023/03/21 02:39:52;;;;;;;4.63;2.40;;;12.10;67.80;;;;;;910447;153;27397;-78
2023/03/21 02:42:40;;;;;;;4.37;2.60;;;12.10;67.80;;;;;;927251;151;27380;-78
2023/03/21 02:45:12;;;;;;;4.90;2.43;;;12.10;67.80;;;;;;913320;153;27416;-78
2023/03/21 02:47:39;;;;;;;3.20;2.67;;;12.10;67.80;;;;;;905988;153;28127;-78
2023/03/21 02:50:05;;;;;;;3.83;2.40;;;12.10;67.80;;;;;;927331;150;27347;-77
2023/03/21 02:52:32;;;;;;;4.27;2.77;;;12.00;67.80;;;;;;929444;150;27386;-77
2023/03/21 02:54:58;;;;;;;4.13;2.40;;;12.00;67.80;;;;;;917347;153;27926;-77
2023/03/21 02:57:25;;;;;;;4.23;2.73;;;12.00;67.80;;;;;;910260;153;27381;-77
2023/03/21 02:59:52;;;;;;;3.20;2.63;;;12.00;67.90;;;;;;926417;150;27347;-77
2023/03/21 03:02:18;;;;;;;4.93;3.00;;;11.90;67.80;;;;;;918823;153;27313;-77
2023/03/21 03:04:46;;;;;;;2.50;2.30;;;11.90;67.80;;;;;;909517;152;27524;-77
2023/03/21 03:07:11;;;;;;;4.23;2.80;;;11.80;67.80;;;;;;908504;154;27425;-77
2023/03/21 03:09:47;;;;;;;3.57;2.47;;;11.80;67.80;;;;;;926228;150;27447;-77
2023/03/21 03:12:31;;;;;;;6.33;3.50;;;11.70;67.80;;;;;;909220;153;27405;-77
2023/03/21 03:15:20;;;;;;;3.23;2.93;;;11.60;67.80;;;;;;909300;154;27421;-77
2023/03/21 03:17:51;;;;;;;3.83;2.77;;;11.50;67.80;;;;;;926071;150;27390;-77
2023/03/21 03:20:20;;;;;;;3.83;3.00;;;11.40;67.80;;;;;;930336;150;27441;-77
2023/03/21 03:22:47;;;;;;;2.70;2.37;;;11.30;67.90;;;;;;925485;150;27386;-78
2023/03/21 03:25:14;;;;;;;4.37;2.80;;;11.20;68.00;;;;;;917568;153;27387;-77
2023/03/21 03:27:40;;;;;;;3.10;2.73;;;11.10;68.30;;;;;;911945;153;29463;-77
2023/03/21 03:30:07;;;;;;;4.30;2.73;;;11.00;68.30;;;;;;939227;148;27380;-77
2023/03/21 03:32:46;;;;;;;3.53;3.20;;;10.90;68.50;;;;;;904948;153;27377;-77
2023/03/21 03:35:16;;;;;;;4.93;2.80;;;10.80;68.70;;;;;;903616;154;27416;-77
2023/03/21 03:37:42;;;;;;;3.67;2.80;;;10.70;68.80;;;;;;901682;154;27434;-77
2023/03/21 03:40:11;;;;;;;3.93;2.77;;;10.60;69.00;;;;;;902798;153;27389;-74
2023/03/21 03:42:38;;;;;;;4.17;2.83;;;10.50;69.20;;;;;;925095;150;27326;-74
2023/03/21 03:45:04;;;;;;;3.63;3.00;;;10.40;69.30;;;;;;940326;148;27398;-74
2023/03/21 03:47:42;;;;;;;5.93;3.20;;;10.30;69.50;;;;;;903853;154;27554;-74
2023/03/21 03:50:24;;;;;;;4.10;2.60;;;10.20;69.60;;;;;;902517;153;27363;-76
2023/03/21 03:52:51;;;;;;;5.23;2.97;;;10.10;69.70;;;;;;939016;148;27427;-76
2023/03/21 03:55:17;;;;;;;3.77;3.00;;;10.00;69.80;;;;;;924220;150;27499;-76
2023/03/21 03:57:44;;;;;;;3.90;3.03;;;10.00;70.10;;;;;;904549;154;27368;-75
2023/03/21 04:00:11;;;;;;;4.80;3.00;;;9.90;70.30;;;;;;905775;155;27362;-75
2023/03/21 04:02:37;;;;;;;4.83;3.37;;;9.80;70.40;;;;;;938877;148;27880;-76
2023/03/21 04:05:04;;;;;;;5.20;3.10;;;9.70;70.60;;;;;;924919;151;27422;-76
2023/03/21 04:07:30;;;;;;;3.03;2.70;;;9.70;70.80;;;;;;924833;151;27400;-76
2023/03/21 04:09:57;;;;;;;3.63;2.53;;;9.60;71.00;;;;;;923244;151;27360;-76
2023/03/21 04:12:23;;;;;;;3.17;2.70;;;9.50;71.20;;;;;;927117;151;27304;-76
2023/03/21 04:14:50;;;;;;;3.50;3.07;;;9.50;71.40;;;;;;924760;151;27386;-76
2023/03/21 04:17:17;;;;;;;3.63;2.87;;;9.40;71.60;;;;;;922448;151;27413;-75
2023/03/21 04:19:44;;;;;;;5.63;2.40;;;9.30;71.60;;;;;;938110;148;27414;-76
2023/03/21 04:22:10;;;;;;;4.97;2.70;;;9.30;71.80;;;;;;922894;151;27403;-75
2023/03/21 04:24:37;;;;;;;3.20;2.80;;;9.20;71.90;;;;;;920091;151;27457;-75
2023/03/21 04:27:04;;;;;;;4.27;2.87;;;9.20;72.10;;;;;;911772;154;27448;-75
2023/03/21 04:29:29;;;;;;;3.53;3.13;;;9.10;72.30;;;;;;925242;151;27446;-75
2023/03/21 04:31:56;;;;;;;4.30;3.17;;;9.00;72.30;;;;;;923654;151;27300;-75
2023/03/21 04:34:27;;;;;;;3.27;2.97;;;9.00;72.50;;;;;;925442;150;27346;-75
2023/03/21 04:36:52;;;;;;;4.50;2.57;;;9.00;72.70;;;;;;926648;151;27502;-76
2023/03/21 04:39:19;;;;;;;3.73;2.73;;;8.90;72.80;;;;;;927042;150;27375;-76
2023/03/21 04:41:45;;;;;;;2.93;2.63;;;8.90;73.20;;;;;;925010;150;27444;-75
2023/03/21 04:44:12;;;;;;;3.50;3.20;;;8.90;73.50;;;;;;924145;150;27454;-76
2023/03/21 04:46:38;;;;;;;4.20;2.77;;;8.90;73.50;;;;;;925320;150;27349;-76
2023/03/21 04:49:05;;;;;;;3.73;2.87;;;8.90;73.60;;;;;;924278;151;27427;-76
2023/03/21 04:51:31;;;;;;;4.17;2.83;;;8.90;73.80;;;;;;924566;151;27420;-76
2023/03/21 04:53:58;;;;;;;3.80;2.90;;;8.90;73.90;;;;;;926744;150;27329;-76
2023/03/21 04:56:30;;;;;;;6.10;3.40;;;8.90;74.00;;;;;;924827;151;27339;-75
2023/03/21 04:58:51;;;;;;;3.10;2.57;;;8.90;74.10;;;;;;924527;150;28692;-76
2023/03/21 05:01:19;;;;;;;3.40;2.73;;;9.00;74.20;;;;;;925984;151;27342;-75
2023/03/21 05:03:44;;;;;;;3.70;3.07;;;9.00;74.40;;;;;;924244;150;27319;-76
2023/03/21 05:06:11;;;;;;;4.37;3.20;;;9.00;74.40;;;;;;923245;150;27300;-76
2023/03/21 05:08:38;;;;;;;5.60;3.20;;;9.10;74.50;;;;;;926310;151;27409;-76
2023/03/21 05:11:04;;;;;;;5.47;3.43;;;9.10;74.50;;;;;;926449;150;27374;-76
2023/03/21 05:13:31;;;;;;;4.10;3.53;;;9.20;74.60;;;;;;923538;150;27357;-75
2023/03/21 05:15:57;;;;;;;5.47;3.47;;;9.20;74.50;;;;;;923488;151;27496;-75
2023/03/21 05:18:25;;;;;;;6.63;3.33;;;9.20;74.40;;;;;;926775;151;27456;-75
2023/03/21 05:20:54;;;;;;;4.77;3.40;;;9.20;74.30;;;;;;924034;150;27494;-76
2023/03/21 05:23:17;;;;;;;5.63;3.40;;;9.20;74.20;;;;;;923654;150;27377;-76
2023/03/21 05:25:44;;;;;;;3.47;3.03;;;9.20;74.20;;;;;;924749;151;27736;-75
2023/03/21 05:28:10;;;;;;;3.27;2.97;;;9.20;74.10;;;;;;926760;151;27875;-75
2023/03/21 05:30:37;;;;;;;3.87;2.87;;;9.20;74.20;;;;;;924737;150;27430;-75
2023/03/21 05:33:03;;;;;;;2.97;2.67;;;9.20;74.40;;;;;;924968;151;27370;-75
2023/03/21 05:35:30;;;;;;;2.87;2.60;;;9.10;74.60;;;;;;925161;151;27439;-76
2023/03/21 05:37:57;;;;;;;3.13;2.93;;;9.20;74.80;;;;;;925860;151;27355;-76
2023/03/21 05:40:23;;;;;;;3.10;2.80;;;9.20;75.00;;;;;;925849;150;27373;-76
2023/03/21 05:42:50;;;;;;;2.97;2.67;;;9.20;74.60;;;;;;927839;150;27541;-76
2023/03/21 05:45:16;;;;;;;3.07;2.87;;;9.20;75.20;;;;;;928353;151;27428;-75
2023/03/21 05:47:43;;;;;;;3.60;3.00;;;9.30;75.10;;;;;;909069;153;27351;-76
2023/03/21 05:50:10;;;;;;;3.40;3.10;;;9.30;75.10;;;;;;925818;150;27448;-76
2023/03/21 05:52:36;;;;;;;3.07;2.73;;;9.30;75.00;;;;;;913231;153;27468;-76
2023/03/21 05:55:03;;;;;;;3.70;3.13;;;9.30;75.10;;;;;;909095;153;27483;-75
2023/03/21 05:57:31;;;;;;;5.20;3.10;;;9.40;75.30;;;;;;910626;153;27896;-75
2023/03/21 05:59:56;;;;;;;3.13;2.93;;;9.40;75.50;;;;;;911294;153;27352;-75
2023/03/21 06:02:22;;;;;;;4.33;3.47;;;9.50;74.80;;;;;;928779;150;27401;-76
2023/03/21 06:04:49;;;;;;;4.23;3.30;;;9.50;75.40;;;;;;925398;150;27392;-75
2023/03/21 06:07:16;;;;;;;3.20;2.80;;;9.60;75.50;;;;;;911517;153;27464;-75
2023/03/21 06:09:42;;;;;;;4.07;3.07;;;9.70;76.10;;;;;;925395;150;27494;-76
2023/03/21 06:12:09;;;;;;;5.47;3.33;;;9.90;77.10;;;;;;924837;150;27403;-75
2023/03/21 06:14:35;;;;;;;3.93;3.00;;;10.20;78.20;;;;;;926540;150;27385;-75
2023/03/21 06:17:02;;;;;;;3.73;3.43;;;10.60;79.10;;;;;;926861;151;27344;-75
2023/03/21 06:19:29;;;;;;;6.27;4.27;;;11.10;79.50;;;;;;909886;153;27393;-76
2023/03/21 06:21:55;;;;;;;4.50;2.93;;;11.60;79.30;;;;;;911017;153;27380;-76
2023/03/21 06:24:22;;;;;;;4.42;3.27;;;12.20;78.90;;;;;;910018;153;27512;-76
2023/03/21 06:26:48;;;;;;;6.45;3.65;;;12.80;78.30;;;;;;910026;153;27485;-76
2023/03/21 06:29:15;;;;;;;3.15;2.85;;;13.40;77.60;;;;;;912655;153;27357;-76
2023/03/21 06:31:41;;;;;;;4.22;3.37;;;14.00;76.80;;;;;;903734;153;27410;-76
2023/03/21 06:34:10;;;;;;;3.92;2.87;;;14.60;75.70;;;;;;902335;153;27487;-76
2023/03/21 06:36:35;;;;;;;3.98;2.87;;;15.10;74.60;;;;;;918333;150;27404;-76
2023/03/21 06:39:01;;;;;;;4.25;2.50;;;15.70;73.80;;;;;;902649;153;27611;-76
2023/03/21 06:41:28;;;;;;;3.02;2.72;;;16.20;72.90;;;;;;925308;150;27387;-76
2023/03/21 06:43:54;;;;;;;5.30;2.70;;;16.80;72.20;;;;;;940946;148;27431;-76
2023/03/21 06:46:21;;;;;;;3.85;2.75;;;17.30;71.00;;;;;;903332;153;27444;-76
2023/03/21 06:48:48;;;;;;;4.30;3.00;;;17.80;69.30;;;;;;925963;150;27360;-76
2023/03/21 06:51:14;;;;;;;4.00;2.70;;;18.10;67.70;;;;;;940101;148;27406;-76
2023/03/21 06:53:41;;;;;;;3.52;2.80;;;18.40;66.00;;;;;;925487;150;27300;-76
2023/03/21 06:56:08;;;;;;;3.80;2.50;;;18.50;64.50;;;;;;903775;154;27445;-76
2023/03/21 06:58:34;;;;;;;3.00;2.37;;;18.60;63.50;;;;;;920830;150;27352;-76
2023/03/21 07:01:01;;;;;;;4.40;2.37;;;18.50;62.80;;;;;;923440;151;27406;-76
2023/03/21 07:03:27;;;;;;;3.10;2.75;;;18.50;62.70;;;;;;926160;150;27324;-76
2023/03/21 07:05:54;;;;;;;3.17;2.67;;;18.50;62.80;;;;;;938146;148;27362;-76
2023/03/21 07:08:20;;;;;;;3.50;2.92;;;18.50;62.50;;;;;;902558;155;27572;-76
2023/03/21 07:10:47;;;;;;;3.12;2.60;;;18.40;62.20;;;;;;919668;150;27324;-76
2023/03/21 07:13:14;;;;;;;4.12;2.50;;;18.40;62.10;;;;;;925024;150;27318;-75
2023/03/21 07:15:40;;;;;;;4.25;2.90;;;18.40;61.80;;;;;;903298;154;27471;-75
2023/03/21 07:18:07;;;;;;;7.05;2.70;;;18.30;61.40;;;;;;918680;150;27392;-75
2023/03/21 07:20:33;;;;;;;3.83;2.70;;;18.30;61.50;;;;;;911489;153;27400;-76
2023/03/21 07:23:00;;;;;;;3.87;2.37;;;18.40;62.10;;;;;;918486;152;27354;-78
2023/03/21 07:25:26;;;;;;;2.70;2.50;;;18.50;63.10;;;;;;919312;150;27384;-82
2023/03/21 07:27:53;;;;;;;4.80;2.40;;;18.90;63.70;;;;;;901503;153;27386;-83
2023/03/21 07:30:20;;;;;;;2.62;2.42;;;19.30;63.60;;;;;;918640;150;27492;-82
2023/03/21 07:32:46;;;;;;;5.00;2.60;;;19.80;63.80;;;;;;912557;153;27370;-83
2023/03/21 07:35:13;;;;;;;2.92;2.25;;;20.40;63.60;;;;;;929166;149;27462;-83
2023/03/21 07:37:39;;;;;;;5.37;2.60;;;21.00;63.00;;;;;;913433;153;27363;-83
2023/03/21 07:40:09;;;;;;;5.22;2.17;;;21.60;62.00;;;;;;929071;150;27384;-83
2023/03/21 07:42:38;;;;;;;4.78;2.50;;;22.30;61.40;;;;;;928568;150;27460;-83
2023/03/21 07:45:04;;;;;;;2.77;2.00;;;22.90;60.10;;;;;;914017;152;27346;-83
2023/03/21 07:47:31;;;;;;;3.22;2.47;;;23.40;58.80;;;;;;921664;152;27412;-83
2023/03/21 07:49:57;;;;;;;4.78;2.42;;;23.80;57.30;;;;;;913326;152;27434;-84
2023/03/21 07:52:24;;;;;;;3.40;2.20;;;24.10;56.60;;;;;;914108;153;27346;-84
2023/03/21 07:54:50;;;;;;;2.47;2.27;;;24.40;56.40;;;;;;912910;152;27477;-84
2023/03/21 07:57:17;;;;;;;2.22;2.05;;;24.70;56.10;;;;;;914222;153;27391;-84
2023/03/21 07:59:44;;;;;;;3.35;2.30;;;24.90;55.50;;;;;;914051;153;27448;-84
2023/03/21 08:02:10;;;;;;;2.75;2.00;;;25.10;54.70;;;;;;930437;150;27325;-83
2023/03/21 08:04:37;;;;;;;9.48;4.83;;;25.20;53.70;;;;;;928792;151;27366;-84
2023/03/21 08:07:03;;;;;;;6.22;4.53;;;25.20;53.00;;;;;;930726;151;27334;-84
2023/03/21 08:09:30;;;;;;;4.05;2.55;;;25.20;52.60;;;;;;930115;153;27458;-84
2023/03/21 08:11:57;;;;;;;2.45;1.90;;;25.10;52.50;;;;;;928842;150;27413;-84
2023/03/21 08:14:23;;;;;;;3.50;2.40;;;25.10;52.20;;;;;;945740;147;27335;-83
2023/03/21 08:16:50;;;;;;;2.15;1.95;;;25.10;52.10;;;;;;945911;147;27395;-84
2023/03/21 08:19:19;;;;;;;2.25;1.98;;;25.20;52.30;;;;;;947572;147;27511;-84
2023/03/21 08:21:43;;;;;;;2.45;2.00;;;25.40;52.80;;;;;;946990;147;27501;-84
2023/03/21 08:24:10;;;;;;;2.67;1.92;;;25.70;53.10;;;;;;948177;147;27694;-84
2023/03/21 08:26:37;;;;;;;2.83;1.65;;;26.00;52.70;;;;;;946541;147;27394;-84
2023/03/21 08:29:03;;;;;;;3.22;2.40;;;26.20;51.70;;;;;;948426;147;27299;-84
2023/03/21 08:31:29;;;;;;;2.35;1.72;;;26.30;50.70;;;;;;945872;147;27422;-84
2023/03/21 08:33:56;;;;;;;2.15;1.90;;;26.30;50.40;;;;;;942468;148;27326;-84
2023/03/21 08:36:23;;;;;;;2.27;2.08;;;26.30;50.20;;;;;;941799;148;27377;-85
2023/03/21 08:38:53;;;;;;;2.37;1.90;;;26.20;50.60;;;;;;943314;148;27293;-85
2023/03/21 08:41:17;;;;;;;2.87;2.25;;;26.20;49.70;;;;;;940701;148;27345;-84
2023/03/21 08:43:42;;;;;;;2.62;2.17;;;26.10;49.00;;;;;;943821;148;27386;-84
2023/03/21 08:46:09;;;;;;;4.42;2.10;;;25.90;49.00;;;;;;940759;148;27444;-84
2023/03/21 08:48:37;;;;;;;2.30;2.10;;;25.80;49.20;;;;;;944839;148;27388;-85
2023/03/21 08:51:02;;;;;;;3.70;2.08;;;25.80;49.40;;;;;;940601;148;27459;-84
2023/03/21 08:53:29;;;;;;;3.87;2.60;;;25.70;49.50;;;;;;942263;148;27353;-84
2023/03/21 08:55:55;;;;;;;3.35;2.22;;;25.70;49.30;;;;;;943250;148;27346;-84
2023/03/21 08:58:22;;;;;;;3.12;1.80;;;25.80;49.50;;;;;;942750;148;27349;-84
2023/03/21 09:00:48;;;;;;;5.78;2.42;;;25.80;49.60;;;;;;943981;148;27333;-84
2023/03/21 09:03:15;;;;;;;2.25;1.92;;;25.90;49.50;;;;;;942675;148;27832;-85
2023/03/21 09:05:44;;;;;;;4.53;2.50;;;26.00;49.30;;;;;;943485;148;27421;-84
2023/03/21 09:08:08;;;;;;;3.15;2.40;;;26.10;48.80;;;;;;942559;148;27287;-84
2023/03/21 09:10:35;;;;;;;4.00;2.58;;;26.10;48.50;;;;;;941138;148;27286;-83
2023/03/21 09:13:01;;;;;;;3.08;2.47;;;26.10;48.60;;;;;;943088;148;27390;-83
2023/03/21 09:15:28;;;;;;;2.85;2.50;;;26.10;48.40;;;;;;942604;148;27353;-83
2023/03/21 09:17:57;;;;;;;2.65;2.15;;;26.10;48.20;;;;;;941300;148;27278;-84
2023/03/21 09:20:24;;;;;;;5.42;2.77;;;26.20;48.20;;;;;;942652;148;27392;-84
2023/03/21 09:22:48;;;;;;;3.45;2.22;;;26.20;47.30;;;;;;940684;148;27488;-83
2023/03/21 09:25:15;;;;;;;4.70;2.47;;;26.30;48.00;;;;;;942434;148;27349;-76
2023/03/21 09:27:44;;;;;;;2.40;2.10;;;26.50;48.40;;;;;;911371;153;27408;-77
2023/03/21 09:30:09;;;;;;;5.12;2.55;;;26.80;48.50;;;;;;907024;153;27483;-77
2023/03/21 09:32:35;;;;;;;3.65;2.27;;;27.10;48.40;;;;;;925013;150;27483;-77
2023/03/21 09:35:04;;;;;;;2.90;2.25;;;27.40;47.30;;;;;;911455;154;27350;-77
2023/03/21 09:37:29;;;;;;;3.33;2.30;;;27.50;46.30;;;;;;910944;154;27398;-78
2023/03/21 09:39:57;;;;;;;3.47;2.42;;;27.60;46.30;;;;;;903992;153;27406;-78
2023/03/21 09:42:43;;;;;;;4.05;2.33;;;27.60;45.80;;;;;;903815;154;27501;-78
2023/03/21 09:45:12;;;;;;;3.15;2.45;;;27.60;45.80;;;;;;918850;150;27357;-78
2023/03/21 09:47:48;;;;;;;2.95;2.27;;;27.60;46.50;;;;;;902618;154;27400;-78
2023/03/21 09:50:11;;;;;;;3.30;2.20;;;27.40;44.80;;;;;;917437;152;27394;-78
2023/03/21 09:52:50;;;;;;;3.35;1.90;;;27.30;44.50;;;;;;911176;154;27390;-78
2023/03/21 09:55:22;;;;;;;4.80;2.45;;;27.00;43.90;;;;;;910297;154;27409;-78
2023/03/21 09:57:48;;;;;;;3.25;2.35;;;26.70;43.80;;;;;;902533;155;27875;-77
2023/03/21 10:00:19;;;;;;;3.50;2.12;;;26.30;44.20;;;;;;903776;155;27498;-77
2023/03/21 10:02:45;;;;;;;1.98;1.87;;;25.90;44.30;;;;;;904859;155;27394;-77
2023/03/21 10:05:11;;;;;;;4.05;2.40;;;25.50;44.20;;;;;;917551;152;27426;-76
2023/03/21 10:07:38;;;;;;;5.05;2.95;;;25.20;44.40;;;;;;914975;154;27345;-77
2023/03/21 10:10:05;;;;;;;4.17;2.60;;;24.90;44.50;;;;;;901385;155;27480;-77
2023/03/21 10:12:31;;;;;;;4.22;2.65;;;24.60;44.70;;;;;;910384;154;27491;-77
2023/03/21 10:14:57;;;;;;;2.47;2.27;;;24.30;45.10;;;;;;904066;155;27796;-77
2023/03/21 10:17:32;;;;;;;2.98;2.10;;;24.00;45.40;;;;;;917512;152;27370;-77
2023/03/21 10:20:15;;;;;;;3.55;2.10;;;23.70;45.50;;;;;;925966;151;27836;-77
2023/03/21 10:22:42;;;;;;;6.42;2.55;;;23.50;45.80;;;;;;922550;151;27507;-77
2023/03/21 10:25:08;;;;;;;4.92;2.08;;;23.20;45.90;;;;;;922549;151;27996;-77
2023/03/21 10:27:35;;;;;;;2.25;1.80;;;23.00;46.20;;;;;;924678;151;27361;-77
2023/03/21 10:30:06;;;;;;;2.80;2.08;;;22.70;46.30;;;;;;922152;151;27400;-77
2023/03/21 10:32:28;;;;;;;3.90;1.70;;;22.50;46.60;;;;;;922666;151;27368;-77
2023/03/21 10:34:55;;;;;;;3.35;2.05;;;22.30;46.90;;;;;;925953;151;27433;-77
2023/03/21 10:37:21;;;;;;;3.60;1.90;;;22.10;46.90;;;;;;927495;151;27687;-77
2023/03/21 10:39:48;;;;;;;2.92;2.17;;;21.90;47.10;;;;;;925247;151;27363;-77
2023/03/21 10:42:21;;;;;;;2.75;2.00;;;21.70;47.30;;;;;;927896;151;27375;-77
2023/03/21 10:44:47;;;;;;;5.42;2.95;;;21.50;47.50;;;;;;924943;151;27358;-77
2023/03/21 10:47:13;;;;;;;4.37;3.50;;;21.30;47.70;;;;;;928250;151;27385;-77
2023/03/21 10:49:40;;;;;;;4.75;2.47;;;21.10;47.90;;;;;;926988;151;27359;-77
2023/03/21 10:52:06;;;;;;;2.25;2.05;;;20.90;48.10;;;;;;925745;151;27373;-76
2023/03/21 10:54:34;;;;;;;2.62;2.00;;;20.80;48.40;;;;;;924443;151;27402;-77
2023/03/21 10:57:03;;;;;;;5.65;2.40;;;20.70;48.60;;;;;;926942;151;27359;-77
2023/03/21 10:59:29;;;;;;;3.05;2.08;;;20.60;48.80;;;;;;925082;151;27413;-77
2023/03/21 11:01:55;;;;;;;3.22;2.47;;;20.40;48.90;;;;;;926233;150;27361;-77
2023/03/21 11:04:22;;;;;;;2.00;1.90;;;20.40;49.10;;;;;;926540;151;27402;-76
2023/03/21 11:06:55;;;;;;;4.20;3.10;;;20.30;49.30;;;;;;925173;151;27464;-77
2023/03/21 11:09:23;;;;;;;4.15;2.60;;;20.20;49.50;;;;;;923160;153;27399;-76
2023/03/21 11:12:03;;;;;;;4.65;2.58;;;20.20;49.60;;;;;;924890;153;27380;-76
2023/03/21 11:14:38;;;;;;;5.35;2.25;;;20.10;49.70;;;;;;923490;152;27483;-76
2023/03/21 11:17:17;;;;;;;3.42;2.30;;;20.10;49.80;;;;;;923714;151;27363;-77
2023/03/21 11:19:49;;;;;;;5.28;2.83;;;20.00;49.80;;;;;;923702;153;27364;-76
2023/03/21 11:22:15;;;;;;;7.05;2.70;;;20.00;50.00;;;;;;924267;153;27390;-76
2023/03/21 11:24:42;;;;;;;4.47;2.37;;;20.00;50.30;;;;;;909566;153;27696;-77
2023/03/21 11:27:09;;;;;;;4.70;2.62;;;20.00;50.30;;;;;;908573;153;27464;-83
2023/03/21 11:29:39;;;;;;;4.28;2.50;;;20.00;50.50;;;;;;911890;152;27376;-75
2023/03/21 11:32:10;;;;;;;4.47;2.85;;;20.00;50.70;;;;;;926056;151;27498;-74
2023/03/21 11:34:43;;;;;;;4.80;2.95;;;20.10;51.00;;;;;;926731;150;27413;-75
2023/03/21 11:37:10;;;;;;;4.17;2.60;;;20.00;51.10;;;;;;914101;153;27400;-74
2023/03/21 11:39:38;;;;;;;3.45;2.95;;;20.00;51.30;;;;;;912337;153;27391;-75
2023/03/21 11:42:03;;;;;;;4.95;2.83;;;20.00;51.60;;;;;;915322;153;27518;-75
2023/03/21 11:44:29;;;;;;;3.83;2.65;;;20.00;51.80;;;;;;913000;153;27490;-74
2023/03/21 11:46:56;;;;;;;3.12;2.77;;;19.90;51.80;;;;;;928236;150;27454;-74
2023/03/21 11:49:23;;;;;;;3.67;2.50;;;19.90;52.30;;;;;;914487;152;27304;-74
2023/03/21 11:51:49;;;;;;;3.95;2.90;;;19.80;52.30;;;;;;913273;153;27492;-74
2023/03/21 11:54:21;;;;;;;4.87;2.15;;;19.80;52.80;;;;;;914409;153;27992;-75
2023/03/21 11:56:51;;;;;;;4.40;2.20;;;19.80;53.00;;;;;;914342;153;27350;-74
2023/03/21 11:59:33;;;;;;;3.72;2.45;;;19.70;53.00;;;;;;913701;153;27405;-74
2023/03/21 12:02:18;;;;;;;3.55;2.35;;;19.60;53.10;;;;;;927164;150;27412;-74
2023/03/21 12:05:03;;;;;;;3.17;2.60;;;19.50;53.40;;;;;;930303;150;27417;-75
2023/03/21 12:07:44;;;;;;;2.85;2.25;;;19.40;53.30;;;;;;914306;153;27520;-75
2023/03/21 12:10:32;;;;;;;4.47;2.40;;;19.30;53.60;;;;;;930194;150;27485;-74
2023/03/21 12:13:02;;;;;;;3.20;2.45;;;19.30;53.90;;;;;;918697;153;27367;-75
2023/03/21 12:15:31;;;;;;;2.25;2.05;;;19.10;54.00;;;;;;911371;153;27783;-75
2023/03/21 12:18:16;;;;;;;4.95;2.20;;;19.00;54.30;;;;;;925623;150;27390;-74
2023/03/21 12:20:51;;;;;;;2.05;1.85;;;19.00;54.60;;;;;;912983;153;27521;-75
2023/03/21 12:23:36;;;;;;;2.92;1.87;;;18.90;54.50;;;;;;912887;153;27298;-75
2023/03/21 12:26:03;;;;;;;3.20;2.02;;;18.80;54.70;;;;;;912688;153;27490;-75
2023/03/21 12:28:29;;;;;;;3.75;2.20;;;18.70;54.80;;;;;;928657;150;27399;-75
2023/03/21 12:30:56;;;;;;;2.72;2.05;;;18.60;55.20;;;;;;917661;153;27387;-75
2023/03/21 12:33:25;;;;;;;3.05;2.20;;;18.50;55.40;;;;;;911154;153;27326;-75
2023/03/21 12:35:54;;;;;;;6.58;2.17;;;18.40;55.70;;;;;;920531;150;27395;-75
2023/03/21 12:38:20;;;;;;;2.98;2.10;;;18.30;56.00;;;;;;918338;151;27399;-75
2023/03/21 12:41:11;;;;;;;2.80;2.17;;;18.30;56.30;;;;;;903567;154;27454;-75
2023/03/21 12:43:50;;;;;;;3.15;2.05;;;18.20;56.60;;;;;;887711;155;27341;-75
2023/03/21 12:46:16;;;;;;;4.80;2.72;;;18.10;57.00;;;;;;900530;155;27432;-75
2023/03/21 12:48:49;;;;;;;4.47;2.15;;;18.10;57.30;;;;;;924078;151;27488;-75
2023/03/21 12:51:15;;;;;;;3.33;1.65;;;18.00;57.40;;;;;;938843;148;27310;-75
2023/03/21 12:53:47;;;;;;;1.70;1.60;;;18.00;57.30;;;;;;923851;151;27408;-76